createdAt,value
2022-12-25T00:01:13.401Z,10.50
2022-12-25T00:03:40.454Z,10.50
2022-12-25T00:06:07.512Z,10.50
2022-12-25T00:08:35.270Z,10.50
2022-12-25T00:11:05.515Z,10.50
2022-12-25T00:13:32.685Z,10.60
2022-12-25T00:15:59.941Z,10.60
2022-12-25T00:18:27.351Z,10.60
2022-12-25T00:21:05.242Z,10.60
2022-12-25T00:23:32.652Z,10.70
2022-12-25T00:25:59.445Z,10.60
2022-12-25T00:28:26.416Z,10.70
2022-12-25T00:30:53.276Z,10.70
2022-12-25T00:33:20.217Z,10.70
2022-12-25T00:35:58.591Z,10.70
2022-12-25T00:38:25.821Z,10.80
2022-12-25T00:40:52.991Z,10.70
2022-12-25T00:43:20.575Z,10.70
2022-12-25T00:46:01.881Z,10.70
2022-12-25T00:48:29.427Z,10.60
2022-12-25T00:50:57.662Z,10.50
2022-12-25T00:53:26.113Z,10.40
2022-12-25T00:56:05.047Z,10.30
2022-12-25T00:58:34.434Z,10.20
2022-12-25T01:01:02.894Z,10.20
2022-12-25T01:03:30.291Z,10.20
2022-12-25T01:05:59.345Z,10.20
2022-12-25T01:08:29.261Z,10.30
2022-12-25T01:11:05.014Z,10.40
2022-12-25T01:13:34.921Z,10.40
2022-12-25T01:16:11.675Z,10.40
2022-12-25T01:18:38.844Z,10.50
2022-12-25T01:21:07.448Z,10.50
2022-12-25T01:23:34.673Z,10.50
2022-12-25T01:26:10.216Z,10.40
2022-12-25T01:28:37.717Z,10.40
2022-12-25T01:31:08.658Z,10.40
2022-12-25T01:33:35.609Z,10.40
2022-12-25T01:36:02.533Z,10.40
2022-12-25T01:38:29.482Z,10.40
2022-12-25T01:40:56.297Z,10.40
2022-12-25T01:43:29.306Z,10.40
2022-12-25T01:45:57.684Z,10.40
2022-12-25T01:48:37.336Z,10.30
2022-12-25T01:51:12.573Z,10.30
2022-12-25T01:53:39.732Z,10.30
2022-12-25T01:56:08.993Z,10.20
2022-12-25T01:58:36.598Z,10.20
2022-12-25T02:01:06.586Z,10.10
2022-12-25T02:03:33.614Z,10.10
2022-12-25T02:06:01.952Z,10.00
2022-12-25T02:08:28.889Z,10.00
2022-12-25T02:10:55.800Z,10.10
2022-12-25T02:13:22.857Z,10.10
2022-12-25T02:16:15.667Z,10.20
2022-12-25T02:18:54.676Z,10.20
2022-12-25T02:22:14.534Z,10.20
2022-12-25T02:25:01.727Z,10.20
2022-12-25T02:27:42.779Z,10.10
2022-12-25T02:30:11.542Z,10.00
2022-12-25T02:33:17.295Z,9.90
2022-12-25T02:35:48.006Z,9.90
2022-12-25T02:38:28.614Z,9.80
2022-12-25T02:40:59.139Z,9.80
2022-12-25T02:43:52.451Z,9.80
2022-12-25T02:46:41.743Z,9.80
2022-12-25T02:49:35.666Z,9.80
2022-12-25T02:52:28.701Z,9.80
2022-12-25T02:55:29.671Z,9.80
2022-12-25T02:58:20.609Z,9.90
2022-12-25T03:01:10.699Z,9.90
2022-12-25T03:04:00.615Z,9.90
2022-12-25T03:06:44.117Z,10.00
2022-12-25T03:09:40.977Z,10.10
2022-12-25T03:12:35.693Z,10.20
2022-12-25T03:15:22.512Z,10.30
2022-12-25T03:17:49.413Z,10.30
2022-12-25T03:20:34.640Z,10.40
2022-12-25T03:23:20.653Z,10.40
2022-12-25T03:26:05.905Z,10.40
2022-12-25T03:28:32.789Z,10.50
2022-12-25T03:31:14.368Z,10.50
2022-12-25T03:34:23.286Z,10.50
2022-12-25T03:37:20.049Z,10.60
2022-12-25T03:39:57.590Z,10.50
2022-12-25T03:43:02.284Z,10.60
2022-12-25T03:45:58.729Z,10.60
2022-12-25T03:48:46.257Z,10.60
2022-12-25T03:51:36.811Z,10.60
2022-12-25T03:54:26.516Z,10.60
2022-12-25T03:57:11.827Z,10.60
2022-12-25T03:59:58.165Z,10.70
2022-12-25T04:02:43.444Z,10.60
2022-12-25T04:05:28.962Z,10.60
2022-12-25T04:08:14.241Z,10.70
2022-12-25T04:10:59.626Z,10.70
2022-12-25T04:13:46.168Z,10.70
2022-12-25T04:16:31.814Z,10.70
2022-12-25T04:19:17.097Z,10.70
2022-12-25T04:22:02.702Z,10.70
2022-12-25T04:25:01.706Z,10.70
2022-12-25T04:27:47.239Z,10.80
2022-12-25T04:30:32.496Z,10.80
2022-12-25T04:33:18.701Z,10.80
2022-12-25T04:36:21.248Z,10.80
2022-12-25T04:38:48.072Z,10.80
2022-12-25T04:41:15.149Z,10.80
2022-12-25T04:43:42.100Z,10.80
2022-12-25T04:46:08.953Z,10.80
2022-12-25T04:48:37.046Z,10.80
2022-12-25T04:51:19.097Z,10.80
2022-12-25T04:53:47.539Z,10.80
2022-12-25T04:56:15.322Z,10.80
2022-12-25T04:58:42.895Z,10.80
2022-12-25T05:01:10.635Z,10.70
2022-12-25T05:03:38.342Z,10.80
2022-12-25T05:06:06.188Z,10.80
2022-12-25T05:08:35.044Z,10.80
2022-12-25T05:11:09.889Z,10.70
2022-12-25T05:13:37.116Z,10.80
2022-12-25T05:16:16.569Z,10.80
2022-12-25T05:18:43.747Z,10.80
2022-12-25T05:21:14.134Z,10.70
2022-12-25T05:23:48.564Z,10.70
2022-12-25T05:26:17.552Z,10.70
2022-12-25T05:28:44.713Z,10.70
2022-12-25T05:31:11.904Z,10.70
2022-12-25T05:33:38.824Z,10.70
2022-12-25T05:36:07.641Z,10.70
2022-12-25T05:38:35.713Z,10.80
2022-12-25T05:41:02.916Z,10.80
2022-12-25T05:43:30.380Z,10.80
2022-12-25T05:45:57.415Z,10.80
2022-12-25T05:48:24.346Z,10.80
2022-12-25T05:50:51.249Z,10.80
2022-12-25T05:53:18.138Z,10.90
2022-12-25T05:55:44.975Z,10.90
2022-12-25T05:58:13.340Z,10.90
2022-12-25T06:00:41.047Z,10.90
2022-12-25T06:03:08.031Z,11.00
2022-12-25T06:05:37.814Z,10.90
2022-12-25T06:08:04.703Z,10.90
2022-12-25T06:10:31.534Z,10.90
2022-12-25T06:12:58.365Z,10.90
2022-12-25T06:15:25.400Z,10.90
2022-12-25T06:17:52.257Z,10.90
2022-12-25T06:20:19.181Z,10.80
2022-12-25T06:22:46.062Z,10.80
2022-12-25T06:25:13.357Z,10.80
2022-12-25T06:27:40.200Z,10.70
2022-12-25T06:30:07.727Z,10.70
2022-12-25T06:32:34.510Z,10.70
2022-12-25T06:35:01.383Z,10.70
2022-12-25T06:37:29.207Z,10.70
2022-12-25T06:39:56.070Z,10.70
2022-12-25T06:42:22.875Z,10.60
2022-12-25T06:44:51.014Z,10.60
2022-12-25T06:47:18.212Z,10.60
2022-12-25T06:49:45.069Z,10.60
2022-12-25T06:52:11.883Z,10.60
2022-12-25T06:54:38.698Z,10.60
2022-12-25T06:57:05.520Z,10.60
2022-12-25T06:59:32.564Z,10.60
2022-12-25T07:01:59.997Z,10.60
2022-12-25T07:04:32.233Z,10.60
2022-12-25T07:07:06.181Z,10.60
2022-12-25T07:09:36.042Z,10.60
2022-12-25T07:12:13.711Z,10.60
2022-12-25T07:14:40.846Z,10.60
2022-12-25T07:17:07.698Z,10.60
2022-12-25T07:19:36.139Z,10.50
2022-12-25T07:22:06.547Z,10.50
2022-12-25T07:24:33.407Z,10.50
2022-12-25T07:27:00.512Z,10.50
2022-12-25T07:29:28.540Z,10.50
2022-12-25T07:31:55.520Z,10.60
2022-12-25T07:34:23.922Z,10.60
2022-12-25T07:36:50.868Z,10.70
2022-12-25T07:39:17.820Z,10.70
2022-12-25T07:41:44.740Z,10.70
2022-12-25T07:44:15.679Z,10.70
2022-12-25T07:46:43.091Z,10.60
2022-12-25T07:49:11.162Z,10.60
2022-12-25T07:51:38.310Z,10.70
2022-12-25T07:54:05.264Z,10.60
2022-12-25T07:56:33.383Z,10.60
2022-12-25T07:59:00.540Z,10.70
2022-12-25T08:01:28.108Z,10.70
2022-12-25T08:03:57.587Z,10.70
2022-12-25T08:06:29.919Z,10.70
2022-12-25T08:09:04.376Z,10.70
2022-12-25T08:11:31.237Z,10.70
2022-12-25T08:13:58.093Z,10.70
2022-12-25T08:16:25.093Z,10.70
2022-12-25T08:18:52.961Z,10.70
2022-12-25T08:21:19.856Z,10.70
2022-12-25T08:23:48.231Z,10.70
2022-12-25T08:26:18.495Z,10.70
2022-12-25T08:28:46.300Z,10.70
2022-12-25T08:31:19.838Z,10.70
2022-12-25T08:33:47.386Z,10.70
2022-12-25T08:36:14.622Z,10.70
2022-12-25T08:38:43.208Z,10.70
2022-12-25T08:41:11.652Z,10.80
2022-12-25T08:43:38.737Z,10.80
2022-12-25T08:46:07.491Z,10.80
2022-12-25T08:48:36.867Z,10.80
2022-12-25T08:51:04.727Z,10.90
2022-12-25T08:53:31.569Z,10.90
2022-12-25T08:56:06.190Z,10.90
2022-12-25T08:58:35.594Z,10.90
2022-12-25T09:01:02.595Z,10.80
2022-12-25T09:03:32.388Z,10.80
2022-12-25T09:06:11.322Z,10.90
2022-12-25T09:08:44.199Z,10.90
2022-12-25T09:11:16.305Z,10.90
2022-12-25T09:13:43.621Z,10.90
2022-12-25T09:16:13.658Z,10.90
2022-12-25T09:18:41.537Z,10.90
2022-12-25T09:21:11.602Z,10.90
2022-12-25T09:23:38.479Z,10.90
2022-12-25T09:26:07.780Z,10.90
2022-12-25T09:28:35.912Z,10.90
2022-12-25T09:31:03.073Z,10.80
2022-12-25T09:33:30.057Z,10.80
2022-12-25T09:35:59.059Z,10.90
2022-12-25T09:39:04.903Z,10.90
2022-12-25T09:41:56.679Z,10.90
2022-12-25T09:44:33.917Z,11.00
2022-12-25T09:47:12.017Z,10.90
2022-12-25T09:50:02.728Z,11.00
2022-12-25T09:52:42.625Z,11.00
2022-12-25T09:55:20.048Z,11.00
2022-12-25T09:57:54.256Z,11.00
2022-12-25T10:00:22.922Z,11.00
2022-12-25T10:03:14.487Z,11.00
2022-12-25T10:06:12.461Z,11.10
2022-12-25T10:08:43.871Z,11.10
2022-12-25T10:11:19.026Z,11.10
2022-12-25T10:14:14.054Z,11.10
2022-12-25T10:16:43.689Z,11.20
2022-12-25T10:19:15.930Z,11.20
2022-12-25T10:21:42.910Z,11.20
2022-12-25T10:24:30.875Z,11.30
2022-12-25T10:26:57.740Z,11.40
2022-12-25T10:29:30.571Z,11.40
2022-12-25T10:31:57.574Z,11.40
2022-12-25T10:34:24.562Z,11.40
2022-12-25T10:36:52.667Z,11.50
2022-12-25T10:39:26.372Z,11.50
2022-12-25T10:42:08.458Z,11.50
2022-12-25T10:44:36.049Z,11.50
2022-12-25T10:47:04.791Z,11.50
2022-12-25T10:49:51.815Z,11.50
2022-12-25T10:52:27.337Z,11.60
2022-12-25T10:54:54.711Z,11.60
2022-12-25T10:57:24.101Z,11.50
2022-12-25T10:59:56.451Z,11.60
2022-12-25T11:02:50.092Z,11.60
2022-12-25T11:05:28.247Z,11.70
2022-12-25T11:08:19.468Z,11.80
2022-12-25T11:10:56.929Z,11.80
2022-12-25T11:13:27.807Z,11.80
2022-12-25T11:16:05.931Z,11.90
2022-12-25T11:19:10.438Z,11.90
2022-12-25T11:21:37.585Z,12.00
2022-12-25T11:24:07.077Z,11.90
2022-12-25T11:26:51.470Z,12.00
2022-12-25T11:29:40.541Z,12.00
2022-12-25T11:32:19.293Z,12.10
2022-12-25T11:34:48.612Z,12.20
2022-12-25T11:37:27.344Z,12.30
2022-12-25T11:39:54.433Z,12.40
2022-12-25T11:42:32.223Z,12.50
2022-12-25T11:45:35.133Z,12.50
2022-12-25T11:48:26.170Z,12.60
2022-12-25T11:50:59.822Z,12.60
2022-12-25T11:53:35.053Z,12.60
2022-12-25T11:56:24.299Z,12.70
2022-12-25T11:58:53.182Z,12.70
2022-12-25T12:01:42.988Z,12.70
2022-12-25T12:04:29.498Z,12.70
2022-12-25T12:07:23.417Z,12.70
2022-12-25T12:10:15.992Z,12.80
2022-12-25T12:13:19.264Z,12.80
2022-12-25T12:15:48.524Z,12.80
2022-12-25T12:18:27.648Z,12.70
2022-12-25T12:20:59.969Z,12.70
2022-12-25T12:23:28.901Z,12.60
2022-12-25T12:25:56.720Z,12.60
2022-12-25T12:28:27.597Z,12.60
2022-12-25T12:31:06.825Z,12.60
2022-12-25T12:33:40.209Z,12.60
2022-12-25T12:36:12.703Z,12.60
2022-12-25T12:38:43.587Z,12.70
2022-12-25T12:41:14.234Z,12.70
2022-12-25T12:43:52.931Z,12.80
2022-12-25T12:46:31.370Z,12.80
2022-12-25T12:49:27.500Z,12.80
2022-12-25T12:52:25.049Z,12.80
2022-12-25T12:55:15.080Z,12.70
2022-12-25T12:57:43.009Z,12.60
2022-12-25T13:00:17.543Z,12.60
2022-12-25T13:03:12.602Z,12.50
2022-12-25T13:05:46.133Z,12.40
2022-12-25T13:08:31.597Z,12.30
2022-12-25T13:11:21.249Z,12.20
2022-12-25T13:13:51.508Z,12.20
2022-12-25T13:16:49.806Z,12.20
2022-12-25T13:19:23.159Z,12.20
2022-12-25T13:21:57.077Z,12.20
2022-12-25T13:24:29.522Z,12.20
2022-12-25T13:26:56.466Z,12.10
2022-12-25T13:29:35.683Z,12.10
2022-12-25T13:32:05.315Z,12.10
2022-12-25T13:34:39.361Z,12.10
2022-12-25T13:37:13.356Z,12.10
2022-12-25T13:40:00.533Z,12.10
2022-12-25T13:42:36.461Z,12.20
2022-12-25T13:45:21.713Z,12.10
2022-12-25T13:47:54.937Z,12.10
2022-12-25T13:50:29.661Z,12.10
2022-12-25T13:52:58.267Z,12.00
2022-12-25T13:55:28.036Z,12.00
2022-12-25T13:57:59.253Z,11.90
2022-12-25T14:00:33.788Z,11.90
2022-12-25T14:03:00.991Z,11.90
2022-12-25T14:05:42.727Z,11.90
2022-12-25T14:08:22.780Z,11.90
2022-12-25T14:10:52.484Z,11.80
2022-12-25T14:13:23.330Z,11.80
2022-12-25T14:15:51.352Z,11.80
2022-12-25T14:18:20.467Z,11.70
2022-12-25T14:21:01.352Z,11.70
2022-12-25T14:23:49.665Z,11.70
2022-12-25T14:26:31.957Z,11.70
2022-12-25T14:29:05.888Z,11.70
2022-12-25T14:31:33.932Z,11.70
2022-12-25T14:34:03.020Z,11.70
2022-12-25T14:36:32.095Z,11.70
2022-12-25T14:39:01.312Z,11.70
2022-12-25T14:41:42.112Z,11.70
2022-12-25T14:44:33.333Z,11.70
2022-12-25T14:47:05.431Z,11.70
2022-12-25T14:49:32.726Z,11.70
2022-12-25T14:51:59.622Z,11.70
2022-12-25T14:54:27.276Z,11.70
2022-12-25T14:56:56.275Z,11.70
2022-12-25T14:59:26.925Z,11.70
2022-12-25T15:02:01.414Z,11.70
2022-12-25T15:04:29.569Z,11.60
2022-12-25T15:07:00.269Z,11.60
2022-12-25T15:09:30.035Z,11.60
2022-12-25T15:11:57.145Z,11.50
2022-12-25T15:14:25.495Z,11.50
2022-12-25T15:17:01.504Z,11.50
2022-12-25T15:19:37.340Z,11.50
2022-12-25T15:22:05.729Z,11.40
2022-12-25T15:24:32.772Z,11.40
2022-12-25T15:27:00.620Z,11.30
2022-12-25T15:32:21.940Z,11.20
2022-12-25T15:34:49.960Z,11.10
2022-12-25T15:37:18.138Z,11.00
2022-12-25T15:39:45.758Z,10.90
2022-12-25T15:42:22.946Z,10.80
2022-12-25T15:44:50.516Z,10.70
2022-12-25T15:47:20.236Z,10.70
2022-12-25T15:49:47.208Z,10.70
2022-12-25T15:52:16.711Z,10.60
2022-12-25T15:54:43.866Z,10.60
2022-12-25T15:57:18.404Z,10.50
2022-12-25T15:59:45.322Z,10.50
2022-12-25T16:02:20.829Z,10.50
2022-12-25T16:04:48.843Z,10.50
2022-12-25T16:07:18.281Z,10.40
2022-12-25T16:09:45.814Z,10.40
2022-12-25T16:12:12.870Z,10.30
2022-12-25T16:14:39.681Z,10.20
2022-12-25T16:17:06.570Z,10.20
2022-12-25T16:19:33.653Z,10.10
2022-12-25T16:22:00.672Z,10.10
2022-12-25T16:24:27.518Z,10.00
2022-12-25T16:26:54.339Z,10.00
2022-12-25T16:29:21.163Z,10.00
2022-12-25T16:31:48.113Z,10.00
2022-12-25T16:34:15.086Z,10.10
2022-12-25T16:36:41.968Z,10.10
2022-12-25T16:39:08.871Z,10.00
2022-12-25T16:41:35.764Z,10.00
2022-12-25T16:44:09.544Z,10.00
2022-12-25T16:46:37.749Z,10.10
2022-12-25T16:49:05.201Z,10.10
2022-12-25T16:51:32.215Z,10.10
2022-12-25T16:53:59.015Z,10.10
2022-12-25T16:56:28.376Z,10.10
2022-12-25T16:58:57.443Z,10.10
2022-12-25T17:01:25.488Z,10.10
2022-12-25T17:03:52.641Z,10.10
2022-12-25T17:06:23.246Z,10.10
2022-12-25T17:08:51.954Z,10.10
2022-12-25T17:11:24.221Z,10.10
2022-12-25T17:13:51.129Z,10.20
2022-12-25T17:16:21.168Z,10.30
2022-12-25T17:18:48.114Z,10.30
2022-12-25T17:21:14.957Z,10.30
2022-12-25T17:23:41.983Z,10.30
2022-12-25T17:26:08.823Z,10.30
2022-12-25T17:28:35.706Z,10.30
2022-12-25T17:31:08.193Z,10.30
2022-12-25T17:33:39.927Z,10.40
2022-12-25T17:36:10.946Z,10.40
2022-12-25T17:38:38.403Z,10.40
2022-12-25T17:41:07.520Z,10.40
2022-12-25T17:43:37.916Z,10.50
2022-12-25T17:46:06.971Z,10.50
2022-12-25T17:48:36.207Z,10.40
2022-12-25T17:51:09.615Z,10.40
2022-12-25T17:53:38.401Z,10.30
2022-12-25T17:56:05.550Z,10.30
2022-12-25T17:58:32.439Z,10.20
2022-12-25T18:01:12.075Z,10.20
2022-12-25T18:03:39.836Z,10.10
2022-12-25T18:06:08.271Z,10.10
2022-12-25T18:08:39.202Z,10.00
2022-12-25T18:11:19.508Z,10.00
2022-12-25T18:13:49.867Z,10.00
2022-12-25T18:16:17.371Z,10.00
2022-12-25T18:18:51.980Z,10.00
2022-12-25T18:21:20.875Z,10.00
2022-12-25T18:23:48.207Z,10.00
2022-12-25T18:26:15.399Z,10.00
2022-12-25T18:28:42.711Z,10.00
2022-12-25T18:31:21.608Z,10.00
2022-12-25T18:33:48.715Z,10.00
2022-12-25T18:36:17.811Z,10.00
2022-12-25T18:38:45.938Z,9.90
2022-12-25T18:41:12.768Z,9.90
2022-12-25T18:43:52.918Z,9.90
2022-12-25T18:46:24.591Z,9.90
2022-12-25T18:48:52.561Z,9.90
2022-12-25T18:51:19.442Z,9.90
2022-12-25T18:53:46.353Z,9.90
2022-12-25T18:56:15.661Z,9.90
2022-12-25T18:58:43.475Z,9.90
2022-12-25T19:01:17.350Z,9.90
2022-12-25T19:03:45.002Z,9.90
2022-12-25T19:06:24.904Z,9.80
2022-12-25T19:08:52.051Z,9.80
2022-12-25T19:11:20.194Z,9.80
2022-12-25T19:13:47.654Z,9.80
2022-12-25T19:16:15.463Z,9.70
2022-12-25T19:18:43.675Z,9.70
2022-12-25T19:21:11.170Z,9.70
2022-12-25T19:23:38.664Z,9.70
2022-12-25T19:26:07.334Z,9.70
2022-12-25T19:28:34.988Z,9.70
2022-12-25T19:31:07.367Z,9.70
2022-12-25T19:33:35.600Z,9.70
2022-12-25T19:36:03.848Z,9.70
2022-12-25T19:38:30.834Z,9.70
2022-12-25T19:41:00.937Z,9.60
2022-12-25T19:43:34.315Z,9.60
2022-12-25T19:46:02.127Z,9.60
2022-12-25T19:48:30.066Z,9.60
2022-12-25T19:50:57.239Z,9.60
2022-12-25T19:53:24.371Z,9.50
2022-12-25T19:55:52.760Z,9.50
2022-12-25T19:58:23.761Z,9.50
2022-12-25T20:01:02.006Z,9.50
2022-12-25T20:03:28.977Z,9.50
2022-12-25T20:05:56.570Z,9.50
2022-12-25T20:08:24.190Z,9.50
2022-12-25T20:10:51.336Z,9.50
2022-12-25T20:13:18.626Z,9.50
2022-12-25T20:15:45.789Z,9.50
2022-12-25T20:18:12.974Z,9.50
2022-12-25T20:20:39.960Z,9.50
2022-12-25T20:23:07.050Z,9.50
2022-12-25T20:25:33.969Z,9.60
2022-12-25T20:28:04.968Z,9.60
2022-12-25T20:30:31.842Z,9.60
2022-12-25T20:32:58.781Z,9.70
2022-12-25T20:35:25.671Z,9.70
2022-12-25T20:37:53.786Z,9.70
2022-12-25T20:40:20.598Z,9.70
2022-12-25T20:42:47.393Z,9.80
2022-12-25T20:45:14.331Z,9.70
2022-12-25T20:47:46.417Z,9.80
2022-12-25T20:50:13.518Z,9.70
2022-12-25T20:52:40.423Z,9.70
2022-12-25T20:55:07.528Z,9.70
2022-12-25T20:57:35.643Z,9.70
2022-12-25T21:00:03.621Z,9.70
2022-12-25T21:02:34.569Z,9.70
2022-12-25T21:05:07.880Z,9.70
2022-12-25T21:07:35.993Z,9.70
2022-12-25T21:10:04.326Z,9.80
2022-12-25T21:12:31.176Z,9.70
2022-12-25T21:14:58.035Z,9.80
2022-12-25T21:17:27.161Z,9.80
2022-12-25T21:19:54.007Z,9.80
2022-12-25T21:22:20.869Z,9.70
2022-12-25T21:24:51.909Z,9.70
2022-12-25T21:27:18.810Z,9.60
2022-12-25T21:29:45.739Z,9.50
2022-12-25T21:32:31.097Z,9.50
2022-12-25T21:34:58.239Z,9.50
2022-12-25T21:37:25.253Z,9.40
2022-12-25T21:39:52.198Z,9.40
2022-12-25T21:42:19.112Z,9.40
2022-12-25T21:44:46.256Z,9.30
2022-12-25T21:47:13.209Z,9.40
2022-12-25T21:50:18.699Z,9.40
2022-12-25T21:52:45.647Z,9.50
2022-12-25T21:55:12.686Z,9.50
2022-12-25T21:58:09.545Z,9.50
2022-12-25T22:00:36.455Z,9.60
2022-12-25T22:03:03.872Z,9.60
2022-12-25T22:05:49.358Z,9.60
2022-12-25T22:08:16.738Z,9.60
2022-12-25T22:10:43.717Z,9.60
2022-12-25T22:13:29.007Z,9.50
2022-12-25T22:16:24.490Z,9.50
2022-12-25T22:19:11.043Z,9.50
2022-12-25T22:21:38.085Z,9.40
2022-12-25T22:24:07.158Z,9.40
2022-12-25T22:26:35.368Z,9.40
2022-12-25T22:29:06.074Z,9.40
2022-12-25T22:31:33.100Z,9.40
2022-12-25T22:34:00.116Z,9.40
2022-12-25T22:36:27.041Z,9.40
2022-12-25T22:38:59.806Z,9.40
2022-12-25T22:41:31.505Z,9.40
2022-12-25T22:44:17.031Z,9.30
2022-12-25T22:46:44.773Z,9.30
2022-12-25T22:49:13.158Z,9.30
2022-12-25T22:51:40.028Z,9.30
2022-12-25T22:54:06.958Z,9.30
2022-12-25T22:56:33.894Z,9.30
2022-12-25T22:59:01.151Z,9.30
2022-12-25T23:01:28.089Z,9.30
2022-12-25T23:03:55.304Z,9.30
2022-12-25T23:06:22.359Z,9.30
2022-12-25T23:08:50.623Z,9.30
2022-12-25T23:11:17.971Z,9.30
2022-12-25T23:14:03.346Z,9.30
2022-12-25T23:16:30.621Z,9.20
2022-12-25T23:19:16.864Z,9.30
2022-12-25T23:22:02.399Z,9.30
2022-12-25T23:24:47.973Z,9.30
2022-12-25T23:27:18.047Z,9.20
2022-12-25T23:29:45.837Z,9.20
2022-12-25T23:32:25.266Z,9.20
2022-12-25T23:34:52.708Z,9.20
2022-12-25T23:37:20.098Z,9.20
2022-12-25T23:39:47.471Z,9.30
2022-12-25T23:42:14.437Z,9.30
2022-12-25T23:44:41.600Z,9.40
2022-12-25T23:47:08.500Z,9.40
2022-12-25T23:50:13.244Z,9.40
2022-12-25T23:52:40.233Z,9.40
2022-12-25T23:55:08.557Z,9.40
2022-12-25T23:57:37.519Z,9.30
